Time;durP1;ratioP1;P1;durP2;ratioP2;P2;SDS_P1;SDS_P2;PMS_P1;PMS_P2;Temp;Humidity;BMP_temperature;BMP_pressure;BME280_temperature;BME280_humidity;BME280_pressure;Samples;Min_cycle;Max_cycle;Signal;HPM_P1;HPM_P2
2021/11/26 00:01:38;;;;;;;6.53;5.15;;;;;;;-140.79;100.00;63287.88;4988820;28;20160;-62
2021/11/26 00:04:05;;;;;;;6.80;5.47;;;;;;;-140.79;100.00;63287.88;4990142;28;20519;-62
2021/11/26 00:06:31;;;;;;;7.45;5.40;;;;;;;-140.79;100.00;63287.88;4990206;28;20018;-62
2021/11/26 00:08:57;;;;;;;7.90;5.53;;;;;;;-140.79;100.00;63287.88;4973147;28;20042;-62
2021/11/26 00:11:23;;;;;;;7.90;5.45;;;;;;;-140.79;100.00;63287.88;4989618;28;20034;-62
2021/11/26 00:13:54;;;;;;;6.78;5.03;;;;;;;-140.79;100.00;63287.88;4990171;28;20512;-62
2021/11/26 00:16:21;;;;;;;7.10;5.30;;;;;;;-140.79;100.00;63287.88;4973290;28;20128;-62
2021/11/26 00:18:52;;;;;;;7.53;5.38;;;;;;;-140.79;100.00;63287.88;4990080;28;20030;-62
2021/11/26 00:21:18;;;;;;;7.35;5.45;;;;;;;-140.79;100.00;63287.88;4989550;28;20120;-62
2021/11/26 00:23:43;;;;;;;7.80;5.20;;;;;;;-140.79;100.00;63287.88;4990425;28;20114;-62
2021/11/26 00:26:09;;;;;;;7.28;5.53;;;;;;;-140.79;100.00;63287.88;4989979;28;20022;-62
2021/11/26 00:28:34;;;;;;;7.03;5.50;;;;;;;-140.79;100.00;63287.88;4989777;28;20084;-63
2021/11/26 00:31:00;;;;;;;7.00;5.40;;;;;;;-140.79;100.00;63287.88;4988966;28;20026;-62
2021/11/26 00:33:25;;;;;;;7.50;5.40;;;;;;;-140.79;100.00;63287.88;4989630;28;20096;-62
2021/11/26 00:35:51;;;;;;;7.03;5.65;;;;;;;-140.79;100.00;63287.88;4989535;28;20118;-62
2021/11/26 00:38:17;;;;;;;7.30;5.30;;;;;;;-140.79;100.00;63287.88;4989749;28;20291;-62
2021/11/26 00:40:43;;;;;;;7.63;5.70;;;;;;;-140.79;100.00;63287.88;4987569;28;20077;-62
2021/11/26 00:43:08;;;;;;;6.65;5.28;;;;;;;-140.79;100.00;63287.88;4989309;28;20026;-62
2021/11/26 00:45:33;;;;;;;7.75;5.65;;;;;;;-140.79;100.00;63287.88;4989387;28;20022;-62
2021/11/26 00:47:59;;;;;;;6.70;5.13;;;;;;;-140.79;100.00;63287.88;4989533;28;20551;-62
2021/11/26 00:50:24;;;;;;;7.07;5.70;;;;;;;-140.79;100.00;63287.88;4989038;28;20042;-62
2021/11/26 00:52:50;;;;;;;6.63;5.22;;;;;;;-140.79;100.00;63287.88;4988963;28;20034;-62
2021/11/26 00:55:16;;;;;;;7.18;5.40;;;;;;;-140.79;100.00;63287.88;4989277;28;20022;-62
2021/11/26 00:57:41;;;;;;;6.75;5.47;;;;;;;-140.79;100.00;63287.88;4988999;28;20345;-62
2021/11/26 01:02:56;;;;;;;8.35;6.18;;;;;;;-140.79;100.00;63287.88;5267740;23;20609;-64
2021/11/26 01:05:22;;;;;;;7.47;5.50;;;;;;;-140.79;100.00;63287.88;5007323;28;20034;-65
2021/11/26 01:07:47;;;;;;;7.40;5.85;;;;;;;-140.79;100.00;63287.88;5008673;28;20488;-65
2021/11/26 01:10:18;;;;;;;6.40;5.30;;;;;;;-140.79;100.00;63287.88;5008813;28;20080;-65
2021/11/26 01:12:43;;;;;;;7.28;5.53;;;;;;;-140.79;100.00;63287.88;5008702;28;20030;-65
2021/11/26 01:15:10;;;;;;;7.38;5.47;;;;;;;-140.79;100.00;63287.88;5008651;28;20036;-65
2021/11/26 01:17:37;;;;;;;6.95;5.18;;;;;;;-140.79;100.00;63287.88;5008845;28;20113;-65
2021/11/26 01:20:04;;;;;;;7.32;5.57;;;;;;;-140.79;100.00;63287.88;5008554;28;20051;-64
2021/11/26 01:22:30;;;;;;;7.65;6.18;;;;;;;-140.79;100.00;63287.88;5008511;28;20026;-65
2021/11/26 01:24:55;;;;;;;7.57;5.75;;;;;;;-140.79;100.00;63287.88;5008566;28;20018;-65
2021/11/26 01:27:21;;;;;;;8.13;5.95;;;;;;;-140.79;100.00;63287.88;5001444;28;20037;-65
2021/11/26 01:29:47;;;;;;;6.53;5.20;;;;;;;-140.79;100.00;63287.88;4988423;28;20426;-64
2021/11/26 01:32:12;;;;;;;7.60;5.63;;;;;;;-140.79;100.00;63287.88;4988699;28;20412;-65
2021/11/26 01:34:38;;;;;;;7.28;5.65;;;;;;;-140.79;100.00;63287.88;4988575;28;20397;-64
2021/11/26 01:37:03;;;;;;;7.50;5.65;;;;;;;-140.79;100.00;63287.88;5003882;28;20049;-64
2021/11/26 01:39:29;;;;;;;7.72;5.57;;;;;;;-140.79;100.00;63287.88;4988549;28;20018;-64
2021/11/26 01:41:55;;;;;;;8.23;5.88;;;;;;;-140.79;100.00;63287.88;4987385;28;20025;-64
2021/11/26 01:44:20;;;;;;;7.60;5.55;;;;;;;-140.79;100.00;63287.88;4988339;28;20084;-65
2021/11/26 01:46:46;;;;;;;7.35;5.32;;;;;;;-140.79;100.00;63287.88;4988168;28;20030;-65
2021/11/26 01:49:11;;;;;;;7.93;5.53;;;;;;;-140.79;100.00;63287.88;4988420;28;20041;-64
2021/11/26 01:51:37;;;;;;;7.63;5.65;;;;;;;-140.79;100.00;63287.88;4988100;28;20057;-63
2021/11/26 01:54:03;;;;;;;7.60;5.43;;;;;;;-140.79;100.00;63287.88;4988359;28;20045;-65
2021/11/26 01:56:29;;;;;;;7.00;5.03;;;;;;;-140.79;100.00;63287.88;4988250;28;20035;-65
2021/11/26 01:58:55;;;;;;;7.47;5.60;;;;;;;-140.79;100.00;63287.88;4987001;28;20030;-65
2021/11/26 02:01:20;;;;;;;6.95;5.45;;;;;;;-140.79;100.00;63287.88;4986485;28;20121;-65
2021/11/26 02:03:46;;;;;;;7.30;5.45;;;;;;;-140.79;100.00;63287.88;5003267;28;20046;-65
2021/11/26 02:06:11;;;;;;;7.50;5.70;;;;;;;-140.79;100.00;63287.88;4988183;28;20042;-64
2021/11/26 02:08:37;;;;;;;6.97;5.35;;;;;;;-140.79;100.00;63287.88;4987890;28;20034;-65
2021/11/26 02:11:02;;;;;;;8.10;5.95;;;;;;;-140.79;100.00;63287.88;4987726;28;20034;-65
2021/11/26 02:13:28;;;;;;;6.90;5.63;;;;;;;-140.79;100.00;63287.88;4986823;28;20038;-63
2021/11/26 02:15:54;;;;;;;6.95;5.60;;;;;;;-140.79;100.00;63287.88;4987990;28;20038;-63
2021/11/26 02:18:20;;;;;;;7.50;5.70;;;;;;;-140.79;100.00;63287.88;4987737;28;20049;-65
2021/11/26 02:20:45;;;;;;;7.90;6.13;;;;;;;-140.79;100.00;63287.88;4986477;28;20035;-64
2021/11/26 02:23:11;;;;;;;7.93;5.72;;;;;;;-140.79;100.00;63287.88;4987921;28;20181;-65
2021/11/26 02:25:37;;;;;;;7.43;5.50;;;;;;;-140.79;100.00;63287.88;4987803;28;20030;-64
2021/11/26 02:28:04;;;;;;;7.25;6.13;;;;;;;-140.79;100.00;63287.88;4988064;28;20058;-64
2021/11/26 02:30:29;;;;;;;7.85;5.38;;;;;;;-140.79;100.00;63287.88;4987503;28;20496;-65
2021/11/26 02:32:59;;;;;;;7.70;5.35;;;;;;;-140.79;100.00;63287.88;4988544;28;20033;-65
2021/11/26 02:35:26;;;;;;;7.22;5.55;;;;;;;-140.79;100.00;63287.88;5003045;28;20488;-65
2021/11/26 02:37:51;;;;;;;7.47;5.53;;;;;;;-140.79;100.00;63287.88;4988699;28;20054;-65
2021/11/26 02:40:18;;;;;;;7.60;5.72;;;;;;;-140.79;100.00;63287.88;4988089;28;20080;-63
2021/11/26 02:42:44;;;;;;;6.78;5.35;;;;;;;-140.79;100.00;63287.88;4987878;28;20038;-64
2021/11/26 02:45:10;;;;;;;7.63;5.68;;;;;;;-140.79;100.00;63287.88;4987569;28;20023;-64
2021/11/26 02:47:35;;;;;;;7.35;5.55;;;;;;;-140.79;100.00;63287.88;4987747;28;20460;-64
2021/11/26 02:50:05;;;;;;;6.43;5.50;;;;;;;-140.79;100.00;63287.88;4985934;28;20080;-64
2021/11/26 02:52:31;;;;;;;7.47;5.40;;;;;;;-140.79;100.00;63287.88;4988978;28;20041;-64
2021/11/26 02:54:57;;;;;;;7.53;5.55;;;;;;;-140.79;100.00;63287.88;4991464;28;20321;-64
2021/11/26 02:57:22;;;;;;;7.07;5.47;;;;;;;-140.79;100.00;63287.88;4991651;28;20030;-64
2021/11/26 02:59:47;;;;;;;7.55;5.78;;;;;;;-140.79;100.00;63287.88;4991127;28;20038;-64
2021/11/26 03:02:13;;;;;;;7.13;5.38;;;;;;;-140.79;100.00;63287.88;4991104;28;20038;-64
2021/11/26 03:04:38;;;;;;;7.20;5.65;;;;;;;-140.79;100.00;63287.88;4991364;28;20038;-63
2021/11/26 03:07:05;;;;;;;7.07;5.22;;;;;;;-140.79;100.00;63287.88;4991507;28;20346;-63
2021/11/26 03:09:30;;;;;;;7.10;5.32;;;;;;;-140.79;100.00;63287.88;4991207;28;20041;-65
2021/11/26 03:11:56;;;;;;;7.72;5.60;;;;;;;-140.79;100.00;63287.88;5006281;28;20038;-65
2021/11/26 03:14:21;;;;;;;7.15;6.18;;;;;;;-140.79;100.00;63287.88;4991143;28;20034;-65
2021/11/26 03:16:47;;;;;;;8.25;5.50;;;;;;;-140.79;100.00;63287.88;4990701;28;20041;-64
2021/11/26 03:19:12;;;;;;;7.95;5.75;;;;;;;-140.79;100.00;63287.88;4991232;28;20027;-64
2021/11/26 03:21:38;;;;;;;7.93;5.45;;;;;;;-140.79;100.00;63287.88;4990830;28;20030;-65
2021/11/26 03:24:03;;;;;;;6.82;5.20;;;;;;;-140.79;100.00;63287.88;4991082;28;20042;-65
2021/11/26 03:26:29;;;;;;;7.85;5.60;;;;;;;-140.79;100.00;63287.88;4991216;28;20104;-64
2021/11/26 03:28:54;;;;;;;7.68;5.65;;;;;;;-140.79;100.00;63287.88;4994521;28;20464;-63
2021/11/26 03:31:20;;;;;;;7.38;5.70;;;;;;;-140.79;100.00;63287.88;5010453;28;20034;-64
2021/11/26 03:33:45;;;;;;;6.35;5.00;;;;;;;-140.79;100.00;63287.88;4991999;28;20038;-65
2021/11/26 03:36:11;;;;;;;7.00;5.55;;;;;;;-140.79;100.00;63287.88;4991001;28;20088;-63
2021/11/26 03:38:36;;;;;;;8.15;5.65;;;;;;;-140.79;100.00;63287.88;4990846;28;20464;-63
2021/11/26 03:41:01;;;;;;;8.50;5.78;;;;;;;-140.79;100.00;63287.88;4990657;28;20030;-65
2021/11/26 03:43:27;;;;;;;7.70;5.38;;;;;;;-140.79;100.00;63287.88;4991048;28;20823;-65
2021/11/26 03:45:52;;;;;;;7.20;5.43;;;;;;;-140.79;100.00;63287.88;4990388;28;20481;-65
2021/11/26 03:48:18;;;;;;;7.07;5.50;;;;;;;-140.79;100.00;63287.88;4990512;28;20612;-64
2021/11/26 03:50:43;;;;;;;7.78;5.57;;;;;;;-140.79;100.00;63287.88;4990390;28;20038;-66
2021/11/26 03:53:09;;;;;;;6.80;5.30;;;;;;;-140.79;100.00;63287.88;4990622;28;20029;-65
2021/11/26 03:55:34;;;;;;;8.38;6.13;;;;;;;-140.79;100.00;63287.88;5005265;28;20029;-63
2021/11/26 03:58:00;;;;;;;6.90;5.03;;;;;;;-140.79;100.00;63287.88;5005122;28;20031;-64
2021/11/26 04:00:25;;;;;;;6.80;5.20;;;;;;;-140.79;100.00;63287.88;4990247;28;20034;-64
2021/11/26 04:02:51;;;;;;;6.95;5.25;;;;;;;-140.79;100.00;63287.88;4990245;28;20046;-65
2021/11/26 04:05:16;;;;;;;6.70;5.07;;;;;;;-140.79;100.00;63287.88;4987940;28;20065;-63
2021/11/26 04:07:42;;;;;;;7.05;5.50;;;;;;;-140.79;100.00;63287.88;4990565;28;20029;-65
2021/11/26 04:10:08;;;;;;;6.70;5.45;;;;;;;-140.79;100.00;63287.88;4990715;28;20078;-65
2021/11/26 04:12:34;;;;;;;7.45;5.53;;;;;;;-140.79;100.00;63287.88;4990259;28;20401;-65
2021/11/26 04:15:00;;;;;;;7.90;5.93;;;;;;;-140.79;100.00;63287.88;4990115;28;20088;-65
2021/11/26 04:17:25;;;;;;;8.18;5.93;;;;;;;-140.79;100.00;63287.88;4989002;28;20481;-65
2021/11/26 04:19:51;;;;;;;8.38;6.05;;;;;;;-140.79;100.00;63287.88;4989733;28;20580;-65
2021/11/26 04:22:16;;;;;;;6.50;5.18;;;;;;;-140.79;100.00;63287.88;4989920;28;20030;-65
2021/11/26 04:24:42;;;;;;;7.57;5.70;;;;;;;-140.79;100.00;63287.88;5004940;28;20026;-65
2021/11/26 04:27:07;;;;;;;6.70;5.30;;;;;;;-140.79;100.00;63287.88;4989837;28;20038;-64
2021/11/26 04:29:33;;;;;;;8.50;5.85;;;;;;;-140.79;100.00;63287.88;4990089;28;20030;-65
2021/11/26 04:31:58;;;;;;;7.18;5.55;;;;;;;-140.79;100.00;63287.88;4989470;28;20507;-63
2021/11/26 04:34:24;;;;;;;7.25;5.10;;;;;;;-140.79;100.00;63287.88;4989716;28;20041;-65
2021/11/26 04:36:49;;;;;;;6.55;4.82;;;;;;;-140.79;100.00;63287.88;4989578;28;20022;-65
2021/11/26 04:39:15;;;;;;;7.25;5.95;;;;;;;-140.79;100.00;63287.88;4989783;28;20782;-65
2021/11/26 04:41:40;;;;;;;7.18;5.68;;;;;;;-140.79;100.00;63287.88;4988934;28;20033;-65
2021/11/26 04:44:06;;;;;;;7.03;5.22;;;;;;;-140.79;100.00;63287.88;4989557;28;20097;-64
2021/11/26 04:46:31;;;;;;;7.97;5.60;;;;;;;-140.79;100.00;63287.88;4989290;28;20022;-64
2021/11/26 04:48:56;;;;;;;7.97;5.50;;;;;;;-140.79;100.00;63287.88;4989353;28;20022;-65
2021/11/26 04:51:22;;;;;;;8.68;6.00;;;;;;;-140.79;100.00;63287.88;4987975;28;20030;-64
2021/11/26 04:53:47;;;;;;;6.75;5.13;;;;;;;-140.79;100.00;63287.88;4990190;28;20701;-64
2021/11/26 04:56:13;;;;;;;6.22;5.22;;;;;;;-140.79;100.00;63287.88;4989216;28;20041;-65
2021/11/26 04:58:38;;;;;;;6.78;5.30;;;;;;;-140.79;100.00;63287.88;4989213;28;20045;-65
2021/11/26 05:01:04;;;;;;;6.63;5.40;;;;;;;-140.79;100.00;63287.88;4988810;28;20014;-63
2021/11/26 05:03:29;;;;;;;8.10;5.88;;;;;;;-140.79;100.00;63287.88;4988339;28;20046;-65
2021/11/26 05:05:55;;;;;;;7.65;5.80;;;;;;;-140.79;100.00;63287.88;4989245;28;20480;-64
2021/11/26 05:08:22;;;;;;;7.03;5.55;;;;;;;-140.79;100.00;63287.88;4988832;28;20022;-65
2021/11/26 05:10:52;;;;;;;7.15;5.57;;;;;;;-140.79;100.00;63287.88;4988749;28;20034;-63
2021/11/26 05:13:23;;;;;;;7.05;5.13;;;;;;;-140.79;100.00;63287.88;4988944;28;20026;-65
2021/11/26 05:15:48;;;;;;;6.97;5.32;;;;;;;-140.79;100.00;63287.88;4987947;28;20062;-65
2021/11/26 05:18:14;;;;;;;6.93;5.28;;;;;;;-140.79;100.00;63287.88;4987720;28;20058;-64
2021/11/26 05:20:39;;;;;;;7.55;5.68;;;;;;;-140.79;100.00;63287.88;4988477;28;20026;-63
2021/11/26 05:23:05;;;;;;;7.10;5.50;;;;;;;-140.79;100.00;63287.88;4988777;28;20109;-65
2021/11/26 05:25:30;;;;;;;6.60;5.22;;;;;;;-140.79;100.00;63287.88;4988334;28;20397;-65
2021/11/26 05:27:56;;;;;;;7.95;5.80;;;;;;;-140.79;100.00;63287.88;4988458;28;20049;-64
2021/11/26 05:30:22;;;;;;;7.22;5.50;;;;;;;-140.79;100.00;63287.88;5003639;28;20026;-65
2021/11/26 05:32:50;;;;;;;6.90;5.50;;;;;;;-140.79;100.00;63287.88;4988786;28;20026;-64
2021/11/26 05:35:16;;;;;;;6.97;5.18;;;;;;;-140.79;100.00;63287.88;4988496;28;20113;-64
2021/11/26 05:37:42;;;;;;;6.78;5.75;;;;;;;-140.79;100.00;63287.88;4988593;28;20029;-65
2021/11/26 05:40:08;;;;;;;6.72;5.40;;;;;;;-140.79;100.00;63287.88;4988157;28;20069;-64
2021/11/26 05:42:34;;;;;;;7.10;5.38;;;;;;;-140.79;100.00;63287.88;4988346;28;20504;-64
2021/11/26 05:45:00;;;;;;;7.03;5.45;;;;;;;-140.79;100.00;63287.88;4988222;28;20408;-65
2021/11/26 05:47:25;;;;;;;6.30;5.07;;;;;;;-140.79;100.00;63287.88;4988075;28;20069;-65
2021/11/26 05:49:51;;;;;;;6.47;5.25;;;;;;;-140.79;100.00;63287.88;4988051;28;20023;-65
2021/11/26 05:52:16;;;;;;;6.70;5.07;;;;;;;-140.79;100.00;63287.88;4988178;28;20031;-65
2021/11/26 05:54:42;;;;;;;7.35;5.30;;;;;;;-140.79;100.00;63287.88;4988366;28;20034;-65
2021/11/26 05:57:07;;;;;;;6.75;5.32;;;;;;;-140.79;100.00;63287.88;4986695;28;20030;-64
2021/11/26 05:59:33;;;;;;;7.15;5.47;;;;;;;-140.79;100.00;63287.88;4987953;28;20026;-65
2021/11/26 06:01:59;;;;;;;6.88;5.35;;;;;;;-140.79;100.00;63287.88;4987905;28;20088;-65
2021/11/26 06:04:28;;;;;;;6.25;5.07;;;;;;;-140.79;100.00;63287.88;5003214;28;20138;-63
2021/11/26 06:06:54;;;;;;;7.38;5.85;;;;;;;-140.79;100.00;63287.88;4987236;28;20022;-63
2021/11/26 06:09:19;;;;;;;7.10;5.55;;;;;;;-140.79;100.00;63287.88;4987671;28;20168;-64
2021/11/26 06:11:45;;;;;;;6.78;5.00;;;;;;;-140.79;100.00;63287.88;4987596;28;20081;-65
2021/11/26 06:14:10;;;;;;;6.80;5.05;;;;;;;-140.79;100.00;63287.88;4988193;28;20034;-63
2021/11/26 06:16:35;;;;;;;6.80;5.32;;;;;;;-140.79;100.00;63287.88;4987946;28;20105;-75
2021/11/26 06:19:01;;;;;;;7.43;4.80;;;;;;;-140.79;100.00;63287.88;4987577;28;20022;-67
2021/11/26 06:21:26;;;;;;;9.05;4.63;;;;;;;-140.79;100.00;63287.88;4987684;28;20536;-74
2021/11/26 06:23:52;;;;;;;8.52;4.88;;;;;;;-140.79;100.00;63287.88;4990538;28;20018;-71
2021/11/26 06:26:17;;;;;;;7.22;4.90;;;;;;;-140.79;100.00;63287.88;5036388;28;20025;-70
2021/11/26 06:28:43;;;;;;;6.32;4.95;;;;;;;-140.79;100.00;63287.88;5029037;28;20021;-69
2021/11/26 06:31:08;;;;;;;5.35;4.20;;;;;;;-140.79;100.00;63287.88;5019660;28;20483;-71
2021/11/26 06:33:34;;;;;;;6.50;4.68;;;;;;;-140.79;100.00;63287.88;5027580;28;20407;-71
2021/11/26 06:36:00;;;;;;;6.38;5.00;;;;;;;-140.79;100.00;63287.88;5027992;28;20091;-71
2021/11/26 06:38:25;;;;;;;5.95;4.50;;;;;;;-140.79;100.00;63287.88;5027411;28;20052;-71
2021/11/26 06:40:51;;;;;;;6.45;4.70;;;;;;;-140.79;100.00;63287.88;5026905;28;20033;-72
2021/11/26 06:43:16;;;;;;;6.10;4.45;;;;;;;-140.79;100.00;63287.88;5028223;28;20248;-71
2021/11/26 06:45:43;;;;;;;5.90;4.45;;;;;;;-140.79;100.00;63287.88;5025091;28;20033;-71
2021/11/26 06:48:08;;;;;;;5.60;4.32;;;;;;;-140.79;100.00;63287.88;5026414;28;20404;-71
2021/11/26 06:50:35;;;;;;;5.78;4.28;;;;;;;-140.79;100.00;63287.88;5019212;28;20057;-73
2021/11/26 06:53:03;;;;;;;5.28;4.18;;;;;;;-140.79;100.00;63287.88;5024493;28;20025;-73
2021/11/26 06:55:29;;;;;;;5.43;4.10;;;;;;;-140.79;100.00;63287.88;5027609;28;20124;-75
2021/11/26 06:57:54;;;;;;;6.45;4.43;;;;;;;-140.79;100.00;63287.88;5024044;28;20041;-71
2021/11/26 07:00:20;;;;;;;5.68;4.60;;;;;;;-140.79;100.00;63287.88;5023283;28;20087;-70
2021/11/26 07:02:45;;;;;;;6.35;4.85;;;;;;;-140.79;100.00;63287.88;5024015;28;20045;-73
2021/11/26 07:05:11;;;;;;;6.15;4.68;;;;;;;-140.79;100.00;63287.88;5023467;28;20030;-72
2021/11/26 07:07:36;;;;;;;5.65;4.20;;;;;;;-140.79;100.00;63287.88;5014033;28;20033;-70
2021/11/26 07:10:04;;;;;;;6.95;4.63;;;;;;;-140.79;100.00;63287.88;5025459;28;20132;-72
2021/11/26 07:15:06;;;;;;;6.35;4.47;;;;;;;-140.79;100.00;63287.88;4635434;26;20438;-70
2021/11/26 07:17:33;;;;;;;6.35;4.38;;;;;;;-140.79;100.00;63287.88;5013198;28;20802;-69
2021/11/26 07:19:58;;;;;;;6.57;4.80;;;;;;;-140.79;100.00;63287.88;4989486;28;20032;-68
2021/11/26 07:22:24;;;;;;;5.80;4.45;;;;;;;-140.79;100.00;63287.88;5007078;28;20041;-68
2021/11/26 07:24:49;;;;;;;6.75;4.85;;;;;;;-140.79;100.00;63287.88;4989670;28;20113;-64
2021/11/26 07:27:15;;;;;;;6.28;4.35;;;;;;;-140.79;100.00;63287.88;5006412;28;20033;-62
2021/11/26 07:29:41;;;;;;;5.93;4.07;;;;;;;-140.79;100.00;63287.88;5023978;28;20112;-62
2021/11/26 07:32:07;;;;;;;6.57;4.55;;;;;;;-140.79;100.00;63287.88;5005668;28;20495;-62
2021/11/26 07:34:32;;;;;;;6.43;4.50;;;;;;;-140.79;100.00;63287.88;5025775;28;20029;-62
2021/11/26 07:36:58;;;;;;;6.20;4.82;;;;;;;-140.79;100.00;63287.88;5025883;28;20052;-62
2021/11/26 07:39:24;;;;;;;6.63;4.65;;;;;;;-140.79;100.00;63287.88;5027319;28;20089;-63
2021/11/26 07:41:50;;;;;;;5.75;4.30;;;;;;;-140.79;100.00;63287.88;5012749;28;20431;-62
2021/11/26 07:44:15;;;;;;;5.80;4.40;;;;;;;-140.79;100.00;63287.88;5028777;28;20036;-62
2021/11/26 07:46:41;;;;;;;5.82;4.28;;;;;;;-140.79;100.00;63287.88;5028679;28;20138;-62
2021/11/26 07:49:06;;;;;;;6.63;5.35;;;;;;;-140.79;100.00;63287.88;5029834;28;20463;-62
2021/11/26 07:51:32;;;;;;;5.88;4.53;;;;;;;-140.79;100.00;63287.88;5027711;28;20499;-70
2021/11/26 07:53:57;;;;;;;6.03;4.90;;;;;;;-140.79;100.00;63287.88;5008053;28;20021;-63
2021/11/26 07:56:23;;;;;;;5.88;4.68;;;;;;;-140.79;100.00;63287.88;5029039;28;20471;-64
2021/11/26 07:58:48;;;;;;;6.03;4.47;;;;;;;-140.79;100.00;63287.88;5025032;28;20029;-64
2021/11/26 08:01:14;;;;;;;5.50;4.30;;;;;;;-140.79;100.00;63287.88;5028779;28;20487;-62
2021/11/26 08:03:40;;;;;;;6.10;4.95;;;;;;;-140.79;100.00;63287.88;5029121;28;20029;-62
2021/11/26 08:06:05;;;;;;;6.30;4.80;;;;;;;-140.79;100.00;63287.88;5027474;28;20032;-62
2021/11/26 08:08:31;;;;;;;6.50;4.80;;;;;;;-140.79;100.00;63287.88;5027628;28;20470;-62
2021/11/26 08:10:56;;;;;;;7.20;4.68;;;;;;;-140.79;100.00;63287.88;5028826;28;20021;-62
2021/11/26 08:13:22;;;;;;;5.53;4.72;;;;;;;-140.79;100.00;63287.88;5028705;28;20033;-63
2021/11/26 08:15:47;;;;;;;6.25;4.72;;;;;;;-140.79;100.00;63287.88;5028448;28;20025;-62
2021/11/26 08:18:13;;;;;;;6.32;4.20;;;;;;;-140.79;100.00;63287.88;5027310;28;20037;-63
2021/11/26 08:20:39;;;;;;;5.97;4.57;;;;;;;-140.79;100.00;63287.88;5028083;28;20022;-63
2021/11/26 08:23:04;;;;;;;7.25;5.13;;;;;;;-140.79;100.00;63287.88;5026894;28;20103;-62
2021/11/26 08:25:30;;;;;;;5.95;4.55;;;;;;;-140.79;100.00;63287.88;5028742;28;20450;-62
2021/11/26 08:27:55;;;;;;;6.25;4.78;;;;;;;-140.79;100.00;63287.88;5026130;28;20025;-63
2021/11/26 08:30:21;;;;;;;6.45;4.45;;;;;;;-140.79;100.00;63287.88;5025404;28;20087;-63
2021/11/26 08:32:47;;;;;;;6.03;4.50;;;;;;;-140.79;100.00;63287.88;4911469;28;20092;-64
2021/11/26 08:35:13;;;;;;;6.18;4.80;;;;;;;-140.79;100.00;63287.88;4997653;28;20034;-63
2021/11/26 08:37:38;;;;;;;5.75;4.28;;;;;;;-140.79;100.00;63287.88;5009065;28;20044;-63
2021/11/26 08:40:04;;;;;;;5.80;4.68;;;;;;;-140.79;100.00;63287.88;5024046;28;20573;-63
2021/11/26 08:42:30;;;;;;;6.95;5.10;;;;;;;-140.79;100.00;63287.88;5012985;28;20144;-62
2021/11/26 08:44:55;;;;;;;6.38;4.43;;;;;;;-140.79;100.00;63287.88;5026897;28;20124;-64
2021/11/26 08:47:21;;;;;;;6.22;4.60;;;;;;;-140.79;100.00;63287.88;5028114;28;20040;-63
2021/11/26 08:49:46;;;;;;;5.57;4.32;;;;;;;-140.79;100.00;63287.88;5027831;28;20036;-63
2021/11/26 08:52:13;;;;;;;6.68;5.05;;;;;;;-140.79;100.00;63287.88;5009303;28;20409;-63
2021/11/26 08:54:39;;;;;;;6.78;4.85;;;;;;;-140.79;100.00;63287.88;5008324;28;20554;-62
2021/11/26 08:57:04;;;;;;;7.32;4.38;;;;;;;-140.79;100.00;63287.88;5007615;28;20033;-69
2021/11/26 08:59:30;;;;;;;6.40;4.65;;;;;;;-140.79;100.00;63287.88;5026856;28;20091;-66
2021/11/26 09:01:55;;;;;;;8.07;4.45;;;;;;;-140.79;100.00;63287.88;5023771;28;20599;-68
2021/11/26 09:04:21;;;;;;;6.18;4.53;;;;;;;-140.79;100.00;63287.88;5026536;28;20079;-69
2021/11/26 09:06:48;;;;;;;7.65;4.53;;;;;;;-140.79;100.00;63287.88;5025674;28;20116;-69
2021/11/26 09:09:14;;;;;;;6.95;4.75;;;;;;;-140.79;100.00;63287.88;5028131;28;20422;-69
2021/11/26 09:11:39;;;;;;;6.30;4.60;;;;;;;-140.79;100.00;63287.88;5027158;28;20032;-69
2021/11/26 09:14:05;;;;;;;6.80;4.38;;;;;;;-140.79;100.00;63287.88;5027345;28;20065;-70
2021/11/26 09:16:32;;;;;;;5.32;4.22;;;;;;;-140.79;100.00;63287.88;5027582;28;20045;-71
2021/11/26 09:18:57;;;;;;;5.85;4.25;;;;;;;-140.79;100.00;63287.88;5028537;28;20021;-67
2021/11/26 09:21:23;;;;;;;6.07;4.45;;;;;;;-140.79;100.00;63287.88;5027506;28;20037;-68
2021/11/26 09:23:49;;;;;;;6.13;4.50;;;;;;;-140.79;100.00;63287.88;5028785;28;20040;-68
2021/11/26 09:26:14;;;;;;;6.60;4.88;;;;;;;-140.79;100.00;63287.88;5033907;28;20032;-70
2021/11/26 09:28:40;;;;;;;5.32;4.05;;;;;;;-140.79;100.00;63287.88;5032376;28;20029;-69
2021/11/26 09:31:05;;;;;;;5.90;4.65;;;;;;;-140.79;100.00;63287.88;5021880;28;20036;-70
2021/11/26 09:33:35;;;;;;;6.07;4.13;;;;;;;-140.79;100.00;63287.88;5026766;28;20044;-69
2021/11/26 09:36:07;;;;;;;6.90;4.57;;;;;;;-140.79;100.00;63287.88;5026812;28;20342;-70
2021/11/26 09:38:34;;;;;;;10.93;7.32;;;;;;;-140.79;100.00;63287.88;5026192;28;20044;-64
2021/11/26 09:41:00;;;;;;;7.68;5.68;;;;;;;-140.79;100.00;63287.88;5010066;28;20048;-64
2021/11/26 09:43:27;;;;;;;6.72;5.00;;;;;;;-140.79;100.00;63287.88;5027985;28;20037;-64
2021/11/26 09:45:52;;;;;;;7.32;4.78;;;;;;;-140.79;100.00;63287.88;5026658;28;20029;-64
2021/11/26 09:48:18;;;;;;;7.28;4.75;;;;;;;-140.79;100.00;63287.88;5027549;28;20048;-63
2021/11/26 09:50:43;;;;;;;7.32;4.72;;;;;;;-140.79;100.00;63287.88;5027112;28;20411;-63
2021/11/26 09:53:21;;;;;;;6.65;4.80;;;;;;;-140.79;100.00;63287.88;5027542;28;20083;-63
2021/11/26 09:55:54;;;;;;;6.30;4.20;;;;;;;-140.79;100.00;63287.88;5027410;28;20037;-65
2021/11/26 09:58:21;;;;;;;6.72;4.88;;;;;;;-140.79;100.00;63287.88;5027597;28;20029;-65
2021/11/26 10:00:47;;;;;;;5.95;4.40;;;;;;;-140.79;100.00;63287.88;5027624;28;20041;-65
2021/11/26 10:03:12;;;;;;;6.75;4.50;;;;;;;-140.79;100.00;63287.88;5025567;28;20709;-65
2021/11/26 10:05:38;;;;;;;6.50;4.85;;;;;;;-140.79;100.00;63287.88;5027630;28;20087;-64
2021/11/26 10:08:04;;;;;;;6.05;4.63;;;;;;;-140.79;100.00;63287.88;5026377;28;20036;-65
2021/11/26 10:10:33;;;;;;;6.78;5.20;;;;;;;-140.79;100.00;63287.88;5025648;28;20124;-63
2021/11/26 10:13:10;;;;;;;7.00;4.43;;;;;;;-140.79;100.00;63287.88;5026573;28;20658;-72
2021/11/26 10:15:41;;;;;;;5.75;4.30;;;;;;;-140.79;100.00;63287.88;5026656;28;20049;-71
2021/11/26 10:18:14;;;;;;;7.05;4.80;;;;;;;-140.79;100.00;63287.88;5027384;28;20040;-72
2021/11/26 10:20:57;;;;;;;6.50;4.60;;;;;;;-140.79;100.00;63287.88;5029518;28;20566;-70
2021/11/26 10:23:25;;;;;;;5.57;4.47;;;;;;;-140.79;100.00;63287.88;5028500;28;20057;-63
2021/11/26 10:25:50;;;;;;;6.78;5.07;;;;;;;-140.79;100.00;63287.88;5025871;28;20014;-63
2021/11/26 10:28:16;;;;;;;7.35;4.75;;;;;;;-140.79;100.00;63287.88;5027386;28;20029;-63
2021/11/26 10:30:43;;;;;;;6.07;5.05;;;;;;;-140.79;100.00;63287.88;5026593;28;20021;-63
2021/11/26 10:33:25;;;;;;;7.38;5.22;;;;;;;-140.79;100.00;63287.88;5025908;28;20032;-63
2021/11/26 10:35:58;;;;;;;7.53;4.80;;;;;;;-140.79;100.00;63287.88;5027130;28;20063;-64
2021/11/26 10:38:26;;;;;;;7.95;5.07;;;;;;;-140.79;100.00;63287.88;5027101;28;20392;-68
2021/11/26 10:40:54;;;;;;;6.13;4.35;;;;;;;-140.79;100.00;63287.88;5026465;28;20033;-63
2021/11/26 10:43:41;;;;;;;6.68;4.85;;;;;;;-140.79;100.00;63287.88;5026927;28;20021;-63
2021/11/26 10:59:10;;;;;;;6.18;4.72;;;;;;;-140.79;100.00;63287.88;5024289;28;20485;-64
2021/11/26 11:01:45;;;;;;;5.90;4.57;;;;;;;-140.79;100.00;63287.88;5021984;28;20487;-61
2021/11/26 11:04:18;;;;;;;6.30;4.70;;;;;;;-140.79;100.00;63287.88;5005248;28;20037;-62
2021/11/26 11:06:44;;;;;;;5.85;4.65;;;;;;;-140.79;100.00;63287.88;5025690;28;20028;-62
2021/11/26 11:09:11;;;;;;;6.55;5.00;;;;;;;-140.79;100.00;63287.88;5025912;28;20057;-62
2021/11/26 11:11:37;;;;;;;6.78;4.53;;;;;;;-140.79;100.00;63287.88;5026270;28;20025;-62
2021/11/26 11:14:15;;;;;;;6.18;4.50;;;;;;;-140.79;100.00;63287.88;5028169;28;20057;-63
2021/11/26 11:17:07;;;;;;;6.82;4.15;;;;;;;-140.79;100.00;63287.88;5030855;28;20025;-62
2021/11/26 11:19:32;;;;;;;7.18;4.50;;;;;;;-140.79;100.00;63287.88;5027951;28;20520;-61
2021/11/26 11:21:59;;;;;;;5.53;4.30;;;;;;;-140.79;100.00;63287.88;5030193;28;20141;-61
2021/11/26 11:24:25;;;;;;;5.80;4.68;;;;;;;-140.79;100.00;63287.88;5030359;28;20033;-63